createdAt,value
2023-02-21T00:00:02.386Z,100162.28
2023-02-21T00:02:22.027Z,100171.78
2023-02-21T00:04:41.781Z,100172.63
2023-02-21T00:07:04.529Z,100177.25
2023-02-21T00:09:24.362Z,100176.84
2023-02-21T00:11:44.077Z,100176.00
2023-02-21T00:14:03.797Z,100181.06
2023-02-21T00:16:24.095Z,100179.91
2023-02-21T00:18:44.354Z,100178.25
2023-02-21T00:21:04.580Z,100174.38
2023-02-21T00:23:24.429Z,100171.34
2023-02-21T00:25:44.783Z,100164.28
2023-02-21T00:28:04.562Z,100168.72
2023-02-21T00:30:26.060Z,100172.38
2023-02-21T00:32:46.126Z,100176.19
2023-02-21T00:35:06.234Z,100177.00
2023-02-21T00:37:25.998Z,100170.94
2023-02-21T00:43:01.141Z,100174.59
2023-02-21T00:45:21.012Z,100163.63
2023-02-21T00:47:40.758Z,100173.13
2023-02-21T00:50:00.487Z,100164.63
2023-02-21T00:52:20.231Z,100157.56
2023-02-21T00:54:40.024Z,100160.19
2023-02-21T00:56:59.829Z,100162.81
2023-02-21T00:59:20.021Z,100165.63
2023-02-21T01:01:39.855Z,100161.19
2023-02-21T01:03:59.816Z,100159.91
2023-02-21T01:06:19.707Z,100160.31
2023-02-21T01:08:39.384Z,100159.31
2023-02-21T01:10:59.767Z,100151.44
2023-02-21T01:13:20.043Z,100151.97
2023-02-21T01:15:39.990Z,100156.03
2023-02-21T01:17:59.977Z,100165.56
2023-02-21T01:20:20.455Z,100163.13
2023-02-21T01:22:40.512Z,100161.31
2023-02-21T01:25:00.895Z,100160.03
2023-02-21T01:27:20.823Z,100164.31
2023-02-21T01:29:40.509Z,100157.41
2023-02-21T01:32:00.376Z,100150.16
2023-02-21T01:34:20.582Z,100156.25
2023-02-21T01:36:40.825Z,100155.22
2023-02-21T01:39:01.107Z,100146.91
2023-02-21T01:41:20.890Z,100143.09
2023-02-21T01:43:42.696Z,100143.28
2023-02-21T01:46:09.805Z,100141.47
2023-02-21T01:48:35.508Z,100146.28
2023-02-21T01:50:55.106Z,100148.66
2023-02-21T01:53:14.950Z,100153.53
2023-02-21T01:55:35.205Z,100149.91
2023-02-21T01:57:57.460Z,100148.91
2023-02-21T02:00:20.236Z,100145.66
2023-02-21T02:02:52.152Z,100143.84
2023-02-21T02:05:14.005Z,100137.75
2023-02-21T02:07:34.232Z,100139.59
2023-02-21T02:09:54.006Z,100133.31
2023-02-21T02:12:24.825Z,100146.47
2023-02-21T02:14:37.580Z,100147.09
2023-02-21T02:16:46.967Z,100146.03
2023-02-21T02:19:03.453Z,100145.03
2023-02-21T02:21:25.029Z,100137.75
2023-02-21T02:23:44.524Z,100133.91
2023-02-21T02:26:07.757Z,100138.97
2023-02-21T02:28:33.506Z,100138.56
2023-02-21T02:31:15.752Z,100146.84
2023-02-21T02:33:45.797Z,100143.78
2023-02-21T02:35:56.106Z,100148.28
2023-02-21T02:38:07.152Z,100148.91
2023-02-21T02:40:39.310Z,100143.03
2023-02-21T02:42:58.933Z,100142.22
2023-02-21T02:45:06.803Z,100129.88
2023-02-21T02:47:17.308Z,100137.75
2023-02-21T02:49:23.572Z,100137.97
2023-02-21T02:51:26.620Z,100136.75
2023-02-21T02:53:30.154Z,100129.50
2023-02-21T02:55:41.661Z,100120.81
2023-02-21T02:57:48.664Z,100126.25
2023-02-21T02:59:49.976Z,100123.22
2023-02-21T03:02:20.631Z,100120.81
2023-02-21T03:04:49.897Z,100121.63
2023-02-21T03:07:02.707Z,100128.44
2023-02-21T03:09:23.201Z,100125.19
2023-02-21T03:11:26.791Z,100125.25
2023-02-21T03:13:36.462Z,100118.56
2023-02-21T03:16:04.040Z,100122.41
2023-02-21T03:18:21.057Z,100116.72
2023-02-21T03:20:24.495Z,100118.75
2023-02-21T03:22:30.671Z,100119.56
2023-02-21T03:24:34.422Z,100127.06
2023-02-21T03:26:38.736Z,100127.25
2023-02-21T03:28:41.302Z,100129.09
2023-02-21T03:30:45.616Z,100124.81
2023-02-21T03:32:51.829Z,100122.19
2023-02-21T03:34:53.421Z,100123.63
2023-02-21T03:36:55.706Z,100126.88
2023-02-21T03:38:57.065Z,100128.50
2023-02-21T03:40:58.630Z,100116.72
2023-02-21T03:43:02.341Z,100124.00
2023-02-21T03:45:03.909Z,100113.47
2023-02-21T03:47:05.369Z,100113.75
2023-02-21T03:49:06.770Z,100109.03
2023-02-21T03:51:08.168Z,100112.66
2023-02-21T03:53:10.325Z,100116.53
2023-02-21T03:55:12.302Z,100122.75
2023-02-21T03:57:13.705Z,100117.09
2023-02-21T03:59:15.088Z,100114.91
2023-02-21T04:01:17.186Z,100122.41
2023-02-21T04:03:18.834Z,100114.53
2023-02-21T04:05:20.199Z,100119.19
2023-02-21T04:07:22.386Z,100121.00
2023-02-21T04:09:25.736Z,100114.75
2023-02-21T04:11:27.204Z,100116.72
2023-02-21T04:13:28.626Z,100108.84
2023-02-21T04:15:29.976Z,100106.03
2023-02-21T04:17:31.397Z,100110.91
2023-02-21T04:19:32.855Z,100108.47
2023-02-21T04:21:34.326Z,100113.09
2023-02-21T04:23:35.821Z,100117.97
2023-02-21T04:25:37.204Z,100109.09
2023-02-21T04:27:38.553Z,100113.91
2023-02-21T04:29:39.942Z,100113.31
2023-02-21T04:31:41.443Z,100112.28
2023-02-21T04:33:43.378Z,100114.31
2023-02-21T04:35:44.828Z,100119.00
2023-02-21T04:37:46.533Z,100117.97
2023-02-21T04:39:48.049Z,100113.75
2023-02-21T04:41:49.449Z,100117.78
2023-02-21T04:43:50.885Z,100115.16
2023-02-21T04:45:52.337Z,100117.59
2023-02-21T04:47:53.701Z,100115.34
2023-02-21T04:49:55.188Z,100112.53
2023-02-21T04:51:56.673Z,100104.00
2023-02-21T04:53:58.086Z,100102.19
2023-02-21T04:55:59.625Z,100106.47
2023-02-21T04:58:01.139Z,100103.44
2023-02-21T05:00:06.290Z,100110.34
2023-02-21T05:02:08.534Z,100108.28
2023-02-21T05:04:10.089Z,100108.91
2023-02-21T05:06:17.676Z,100106.47
2023-02-21T05:08:19.060Z,100111.34
2023-02-21T05:10:20.478Z,100112.53
2023-02-21T05:12:21.872Z,100113.53
2023-02-21T05:14:23.494Z,100120.22
2023-02-21T05:16:25.582Z,100117.59
2023-02-21T05:18:28.281Z,100120.22
2023-02-21T05:20:29.724Z,100120.59
2023-02-21T05:22:31.150Z,100124.88
2023-02-21T05:24:33.160Z,100124.69
2023-02-21T05:26:36.955Z,100120.22
2023-02-21T05:28:40.211Z,100122.84
2023-02-21T05:30:41.730Z,100123.66
2023-02-21T05:32:43.265Z,100124.47
2023-02-21T05:34:46.850Z,100122.50
2023-02-21T05:36:48.325Z,100119.06
2023-02-21T05:38:55.429Z,100121.84
2023-02-21T05:40:56.950Z,100122.50
2023-02-21T05:42:58.354Z,100123.28
2023-02-21T05:44:59.829Z,100122.28
2023-02-21T05:47:02.358Z,100112.97
2023-02-21T05:49:04.273Z,100123.09
2023-02-21T05:51:05.769Z,100122.28
2023-02-21T05:53:09.792Z,100120.66
2023-02-21T05:55:11.844Z,100129.19
2023-02-21T05:57:13.282Z,100116.22
2023-02-21T05:59:16.616Z,100119.88
2023-02-21T06:01:18.362Z,100124.09
2023-02-21T06:03:19.827Z,100120.66
2023-02-21T06:05:22.098Z,100116.84
2023-02-21T06:07:23.495Z,100118.03
2023-02-21T06:09:25.422Z,100112.75
2023-02-21T06:11:29.226Z,100108.97
2023-02-21T06:13:32.909Z,100106.34
2023-02-21T06:15:34.411Z,100102.25
2023-02-21T06:17:39.381Z,100094.19
2023-02-21T06:19:40.735Z,100097.63
2023-02-21T06:21:43.126Z,100098.22
2023-02-21T06:23:45.005Z,100095.59
2023-02-21T06:25:46.395Z,100096.63
2023-02-21T06:27:47.900Z,100095.81
2023-02-21T06:29:49.337Z,100093.78
2023-02-21T06:31:57.596Z,100087.72
2023-02-21T06:33:59.607Z,100089.34
2023-02-21T06:36:06.066Z,100094.44
2023-02-21T06:38:07.477Z,100092.78
2023-02-21T06:40:09.388Z,100096.25
2023-02-21T06:42:15.707Z,100100.69
2023-02-21T06:44:17.456Z,100094.59
2023-02-21T06:46:20.742Z,100095.44
2023-02-21T06:48:22.122Z,100094.44
2023-02-21T06:50:23.545Z,100103.94
2023-02-21T06:52:24.965Z,100106.56
2023-02-21T06:54:26.417Z,100104.75
2023-02-21T06:56:27.978Z,100107.38
2023-02-21T06:58:29.405Z,100099.47
2023-02-21T07:00:30.824Z,100102.69
2023-02-21T07:02:32.238Z,100112.63
2023-02-21T07:04:33.672Z,100104.56
2023-02-21T07:06:35.130Z,100106.75
2023-02-21T07:08:36.613Z,100104.13
2023-02-21T07:10:38.033Z,100104.94
2023-02-21T07:12:40.005Z,100103.13
2023-02-21T07:14:41.391Z,100099.47
2023-02-21T07:16:42.749Z,100103.94
2023-02-21T07:18:47.549Z,100103.94
2023-02-21T07:20:49.580Z,100102.75
2023-02-21T07:22:50.987Z,100102.53
2023-02-21T07:24:53.702Z,100105.38
2023-02-21T07:26:55.885Z,100107.19
2023-02-21T07:28:57.348Z,100103.34
2023-02-21T07:30:58.780Z,100101.72
2023-02-21T07:33:00.263Z,100100.72
2023-02-21T07:35:01.664Z,100104.75
2023-02-21T07:37:03.296Z,100106.19
2023-02-21T07:39:04.867Z,100110.00
2023-02-21T07:41:06.278Z,100117.50
2023-02-21T07:43:07.699Z,100102.09
2023-02-21T07:45:11.166Z,100111.38
2023-02-21T07:47:12.548Z,100112.25
2023-02-21T07:49:13.988Z,100113.88
2023-02-21T07:51:15.703Z,100119.56
2023-02-21T07:53:17.960Z,100114.25
2023-02-21T07:55:19.354Z,100116.34
2023-02-21T07:57:20.826Z,100117.94
2023-02-21T07:59:22.286Z,100119.97
2023-02-21T08:01:26.017Z,100112.75
2023-02-21T08:03:27.404Z,100112.53
2023-02-21T08:05:28.895Z,100114.56
2023-02-21T08:07:30.496Z,100117.81
2023-02-21T08:09:33.257Z,100117.63
2023-02-21T08:11:36.637Z,100116.81
2023-02-21T08:13:38.190Z,100119.22
2023-02-21T08:15:39.614Z,100114.38
2023-02-21T08:17:41.015Z,100117.28
2023-02-21T08:19:42.532Z,100124.78
2023-02-21T08:21:48.817Z,100118.50
2023-02-21T08:23:54.956Z,100118.69
2023-02-21T08:25:56.378Z,100120.16
2023-02-21T08:27:58.798Z,100119.13
2023-02-21T08:30:00.245Z,100118.13
2023-02-21T08:32:01.739Z,100116.13
2023-02-21T08:34:03.862Z,100112.47
2023-02-21T08:36:05.648Z,100117.34
2023-02-21T08:38:08.406Z,100111.88
2023-02-21T08:40:10.325Z,100113.09
2023-02-21T08:42:12.803Z,100108.03
2023-02-21T08:44:16.334Z,100107.84
2023-02-21T08:46:17.978Z,100109.22
2023-02-21T08:48:19.453Z,100111.47
2023-02-21T08:50:22.882Z,100108.59
2023-02-21T08:52:24.286Z,100112.25
2023-02-21T08:54:25.667Z,100114.09
2023-02-21T08:56:28.039Z,100114.28
2023-02-21T08:58:29.414Z,100118.81
2023-02-21T09:00:30.870Z,100114.91
2023-02-21T09:02:32.811Z,100112.50
2023-02-21T09:04:35.828Z,100114.56
2023-02-21T09:06:37.233Z,100116.97
2023-02-21T09:08:39.092Z,100113.56
2023-02-21T09:10:47.261Z,100118.16
2023-02-21T09:12:49.069Z,100111.91
2023-02-21T09:14:50.474Z,100121.41
2023-02-21T09:16:51.860Z,100126.47
2023-02-21T09:18:55.996Z,100119.63
2023-02-21T09:20:58.109Z,100112.72
2023-02-21T09:22:59.529Z,100120.41
2023-02-21T09:25:02.611Z,100114.97
2023-02-21T09:27:04.493Z,100118.59
2023-02-21T09:29:06.054Z,100125.09
2023-02-21T09:31:07.423Z,100120.19
2023-02-21T09:33:09.540Z,100119.56
2023-02-21T09:35:13.849Z,100118.56
2023-02-21T09:37:15.281Z,100117.97
2023-02-21T09:39:17.907Z,100113.75
2023-02-21T09:41:19.884Z,100108.06
2023-02-21T09:43:31.486Z,100120.84
2023-02-21T09:45:36.168Z,100121.47
2023-02-21T09:47:39.239Z,100118.00
2023-02-21T09:49:43.908Z,100121.22
2023-02-21T09:51:45.805Z,100122.25
2023-02-21T09:53:48.527Z,100118.84
2023-02-21T09:55:53.538Z,100124.28
2023-02-21T09:57:56.419Z,100124.94
2023-02-21T09:59:57.857Z,100123.31
2023-02-21T10:02:14.032Z,100125.94
2023-02-21T10:04:35.783Z,100120.91
2023-02-21T10:06:51.279Z,100118.59
2023-02-21T10:09:11.045Z,100123.72
2023-02-21T10:11:45.516Z,100125.97
2023-02-21T10:13:56.833Z,100113.81
2023-02-21T10:16:13.070Z,100129.00
2023-02-21T10:18:33.138Z,100127.81
2023-02-21T10:20:52.314Z,100124.13
2023-02-21T10:22:56.319Z,100129.84
2023-02-21T10:24:57.887Z,100128.56
2023-02-21T10:27:05.824Z,100132.06
2023-02-21T10:29:20.176Z,100128.03
2023-02-21T10:31:31.296Z,100135.31
2023-02-21T10:33:36.253Z,100129.84
2023-02-21T10:35:38.974Z,100132.91
2023-02-21T10:37:53.637Z,100130.44
2023-02-21T10:40:20.598Z,100133.28
2023-02-21T10:42:31.826Z,100123.97
2023-02-21T10:44:35.778Z,100124.81
2023-02-21T10:46:45.230Z,100125.44
2023-02-21T10:48:50.298Z,100129.31
2023-02-21T10:51:04.187Z,100132.56
2023-02-21T10:53:06.690Z,100129.91
2023-02-21T10:55:32.377Z,100130.78
2023-02-21T10:57:41.146Z,100127.94
2023-02-21T10:59:43.454Z,100125.91
2023-02-21T11:01:46.503Z,100122.47
2023-02-21T11:03:53.769Z,100117.88
2023-02-21T11:05:58.581Z,100122.66
2023-02-21T11:08:09.125Z,100113.63
2023-02-21T11:10:32.982Z,100115.09
2023-02-21T11:12:34.516Z,100118.47
2023-02-21T11:14:35.996Z,100114.03
2023-02-21T11:16:37.494Z,100117.47
2023-02-21T11:18:38.958Z,100111.47
2023-02-21T11:20:40.938Z,100117.59
2023-02-21T11:22:45.560Z,100120.19
2023-02-21T11:24:59.862Z,100116.19
2023-02-21T11:27:01.272Z,100112.13
2023-02-21T11:29:13.822Z,100120.41
2023-02-21T11:31:30.144Z,100114.97
2023-02-21T11:33:32.928Z,100111.91
2023-02-21T11:35:47.973Z,100115.56
2023-02-21T11:38:01.521Z,100108.47
2023-02-21T11:40:05.791Z,100111.28
2023-02-21T11:42:34.147Z,100114.31
2023-02-21T11:44:43.115Z,100113.91
2023-02-21T11:46:47.203Z,100122.66
2023-02-21T11:49:01.312Z,100105.84
2023-02-21T11:51:30.379Z,100108.88
2023-02-21T11:53:40.387Z,100109.28
2023-02-21T11:55:50.425Z,100109.88
2023-02-21T11:57:58.080Z,100103.00
2023-02-21T12:00:37.839Z,100093.25
2023-02-21T12:03:14.800Z,100095.28
2023-02-21T12:05:42.643Z,100094.91
2023-02-21T12:08:23.791Z,100087.22
2023-02-21T12:10:53.009Z,100079.47
2023-02-21T12:13:12.648Z,100082.94
2023-02-21T12:15:30.910Z,100083.97
2023-02-21T12:17:49.560Z,100072.81
2023-02-21T12:20:24.939Z,100071.59
2023-02-21T12:22:53.558Z,100068.75
2023-02-21T12:25:03.907Z,100072.16
2023-02-21T12:27:28.582Z,100051.38
2023-02-21T12:29:29.974Z,100058.06
2023-02-21T12:32:05.468Z,100053.06
2023-02-21T12:34:19.067Z,100055.69
2023-02-21T12:36:36.260Z,100056.81
2023-02-21T12:39:13.004Z,100047.31
2023-02-21T12:41:40.613Z,100046.94
2023-02-21T12:43:54.889Z,100043.25
2023-02-21T12:46:17.264Z,100037.19
2023-02-21T12:48:38.251Z,100034.72
2023-02-21T12:50:43.774Z,100030.06
2023-02-21T12:53:03.119Z,100032.13
2023-02-21T12:55:22.034Z,100032.22
2023-02-21T12:57:37.285Z,100019.56
2023-02-21T12:59:52.358Z,100020.25
2023-02-21T13:02:01.302Z,100018.56
2023-02-21T13:04:57.309Z,100016.13
2023-02-21T13:07:07.529Z,100012.31
2023-02-21T13:09:28.076Z,100008.31
2023-02-21T13:11:37.772Z,100006.38
2023-02-21T13:13:39.329Z,100007.31
2023-02-21T13:15:43.581Z,100008.16
2023-02-21T13:17:55.648Z,100006.44
2023-02-21T13:20:09.215Z,99995.97
2023-02-21T13:23:07.396Z,100002.25
2023-02-21T13:25:17.629Z,99995.84
2023-02-21T13:27:37.932Z,99998.16
2023-02-21T13:29:42.360Z,99992.94
2023-02-21T13:31:45.879Z,99988.03
2023-02-21T13:33:52.776Z,99985.78
2023-02-21T13:35:56.629Z,99989.94
2023-02-21T13:38:00.121Z,99985.97
2023-02-21T13:40:16.503Z,99983.97
2023-02-21T13:42:24.802Z,99982.41
2023-02-21T13:44:48.610Z,99982.63
2023-02-21T13:46:53.172Z,99980.22
2023-02-21T13:49:32.069Z,99981.00
2023-02-21T13:51:53.000Z,99973.69
2023-02-21T13:54:11.326Z,99968.38
2023-02-21T13:56:15.561Z,99974.19
2023-02-21T13:58:18.854Z,99974.75
2023-02-21T14:00:26.676Z,99973.16
2023-02-21T14:02:32.746Z,99972.38
2023-02-21T14:04:58.096Z,99971.56
2023-02-21T14:06:59.660Z,99972.22
2023-02-21T14:09:06.962Z,99968.34
2023-02-21T14:11:10.229Z,99963.47
2023-02-21T14:13:22.377Z,99963.47
2023-02-21T14:15:23.974Z,99957.44
2023-02-21T14:17:29.399Z,99965.41
2023-02-21T14:19:30.832Z,99956.81
2023-02-21T14:21:32.166Z,99956.91
2023-02-21T14:23:45.475Z,99963.38
2023-02-21T14:26:00.110Z,99971.69
2023-02-21T14:28:02.123Z,99970.09
2023-02-21T14:30:12.971Z,99961.16
2023-02-21T14:32:14.562Z,99966.50
2023-02-21T14:34:48.390Z,99954.69
2023-02-21T14:36:52.074Z,99959.34
2023-02-21T14:38:54.198Z,99948.78
2023-02-21T14:41:07.903Z,99945.13
2023-02-21T14:43:54.577Z,99951.44
2023-02-21T14:46:27.048Z,99949.44
2023-02-21T14:48:40.341Z,99948.84
2023-02-21T14:51:14.105Z,99955.13
2023-02-21T14:53:37.247Z,99953.28
2023-02-21T14:55:50.787Z,99952.34
2023-02-21T14:58:29.850Z,99947.84
2023-02-21T15:01:02.672Z,99950.53
2023-02-21T15:03:20.830Z,99950.91
2023-02-21T15:05:30.062Z,99954.34
2023-02-21T15:07:37.506Z,99951.13
2023-02-21T15:09:38.944Z,99950.91
2023-02-21T15:11:41.226Z,99952.16
2023-02-21T15:13:42.658Z,99953.59
2023-02-21T15:15:44.145Z,99949.75
2023-02-21T15:17:59.122Z,99943.03
2023-02-21T15:20:13.752Z,99939.19
2023-02-21T15:22:25.301Z,99948.94
2023-02-21T15:24:28.328Z,99944.47
2023-02-21T15:26:31.833Z,99946.28
2023-02-21T15:28:33.385Z,99949.34
2023-02-21T15:30:41.220Z,99944.88
2023-02-21T15:32:43.360Z,99937.97
2023-02-21T15:34:47.215Z,99944.31
2023-02-21T15:37:12.503Z,99939.44
2023-02-21T15:39:26.885Z,99945.72
2023-02-21T15:41:33.886Z,99940.69
2023-02-21T15:43:59.074Z,99938.22
2023-02-21T15:46:03.294Z,99935.00
2023-02-21T15:48:05.109Z,99939.84
2023-02-21T15:50:12.269Z,99930.94
2023-02-21T15:52:32.163Z,99937.06
2023-02-21T15:54:38.317Z,99941.72
2023-02-21T15:56:39.780Z,99932.59
2023-02-21T15:58:41.277Z,99926.09
2023-02-21T16:00:46.219Z,99926.72
2023-02-21T16:02:47.755Z,99934.25
2023-02-21T16:04:53.102Z,99929.16
2023-02-21T16:06:57.657Z,99934.00
2023-02-21T16:09:06.799Z,99930.97
2023-02-21T16:11:08.240Z,99931.38
2023-02-21T16:13:10.686Z,99920.81
2023-02-21T16:15:18.213Z,99923.28
2023-02-21T16:17:24.618Z,99913.16
2023-02-21T16:19:32.652Z,99917.25
2023-02-21T16:21:35.273Z,99919.47
2023-02-21T16:23:40.786Z,99920.28
2023-02-21T16:25:55.827Z,99924.34
2023-02-21T16:28:00.110Z,99922.13
2023-02-21T16:30:04.109Z,99925.19
2023-02-21T16:32:06.802Z,99913.00
2023-02-21T16:34:14.308Z,99921.94
2023-02-21T16:36:30.791Z,99917.06
2023-02-21T16:38:32.241Z,99907.75
2023-02-21T16:40:35.282Z,99914.03
2023-02-21T16:42:36.690Z,99913.84
2023-02-21T16:44:38.101Z,99920.53
2023-02-21T16:46:39.537Z,99918.06
2023-02-21T16:48:41.205Z,99916.66
2023-02-21T16:50:42.668Z,99912.22
2023-02-21T16:52:44.107Z,99918.50
2023-02-21T16:54:45.519Z,99913.44
2023-02-21T16:56:50.408Z,99915.44
2023-02-21T16:58:56.576Z,99921.34
2023-02-21T17:01:01.192Z,99923.16
2023-02-21T17:03:02.686Z,99923.16
2023-02-21T17:05:04.204Z,99921.53
2023-02-21T17:07:09.581Z,99918.91
2023-02-21T17:09:18.815Z,99909.38
2023-02-21T17:11:20.417Z,99910.00
2023-02-21T17:13:21.905Z,99915.88
2023-02-21T17:15:23.744Z,99921.91
2023-02-21T17:17:25.226Z,99914.06
2023-02-21T17:19:26.673Z,99912.63
2023-02-21T17:21:28.096Z,99911.81
2023-02-21T17:23:30.195Z,99917.25
2023-02-21T17:25:32.608Z,99919.09
2023-02-21T17:27:34.008Z,99921.16
2023-02-21T17:29:35.388Z,99922.53
2023-02-21T17:31:36.856Z,99923.97
2023-02-21T17:33:40.121Z,99931.25
2023-02-21T17:35:41.570Z,99923.34
2023-02-21T17:37:43.635Z,99923.53
2023-02-21T17:39:45.032Z,99921.13
2023-02-21T17:41:48.343Z,99920.31
2023-02-21T17:43:50.256Z,99930.03
2023-02-21T17:45:51.729Z,99915.63
2023-02-21T17:47:56.273Z,99926.59
2023-02-21T17:50:01.832Z,99931.84
2023-02-21T17:52:04.332Z,99923.94
2023-02-21T17:54:05.803Z,99925.56
2023-02-21T17:56:07.240Z,99924.94
2023-02-21T17:58:09.691Z,99922.13
2023-02-21T18:00:24.571Z,99924.75
2023-02-21T18:02:25.967Z,99921.50
2023-02-21T18:04:28.759Z,99934.47
2023-02-21T18:06:30.610Z,99932.03
2023-02-21T18:08:32.011Z,99930.22
2023-02-21T18:10:33.434Z,99926.56
2023-02-21T18:12:34.936Z,99931.22
2023-02-21T18:14:36.390Z,99929.59
2023-02-21T18:16:37.797Z,99925.94
2023-02-21T18:18:39.273Z,99933.84
2023-02-21T18:20:40.672Z,99931.81
2023-02-21T18:22:42.761Z,99929.81
2023-02-21T18:24:44.136Z,99925.13
2023-02-21T18:26:46.532Z,99931.41
2023-02-21T18:28:47.949Z,99920.47
2023-02-21T18:30:51.234Z,99927.34
2023-02-21T18:32:52.853Z,99926.53
2023-02-21T18:34:54.324Z,99917.41
2023-02-21T18:36:55.830Z,99911.38
2023-02-21T18:38:57.765Z,99915.59
2023-02-21T18:41:01.756Z,99918.84
2023-02-21T18:43:05.999Z,99914.38
2023-02-21T18:45:07.821Z,99912.38
2023-02-21T18:47:11.174Z,99915.00
2023-02-21T18:49:13.830Z,99919.44
2023-02-21T18:51:18.800Z,99917.81
2023-02-21T18:53:20.736Z,99918.03
2023-02-21T18:55:22.150Z,99911.16
2023-02-21T18:57:24.206Z,99919.22
2023-02-21T18:59:25.612Z,99915.19
2023-02-21T19:01:27.220Z,99908.50
2023-02-21T19:03:28.797Z,99911.13
2023-02-21T19:05:30.252Z,99910.50
2023-02-21T19:07:36.211Z,99908.09
2023-02-21T19:09:37.654Z,99913.53
2023-02-21T19:11:39.375Z,99912.72
2023-02-21T19:13:41.184Z,99897.97
2023-02-21T19:15:43.172Z,99904.22
2023-02-21T19:17:44.902Z,99903.19
2023-02-21T19:19:46.287Z,99902.78
2023-02-21T19:21:47.764Z,99900.97
2023-02-21T19:23:49.294Z,99903.59
2023-02-21T19:25:50.716Z,99899.16
2023-02-21T19:27:59.964Z,99901.59
2023-02-21T19:30:01.404Z,99897.16
2023-02-21T19:32:03.127Z,99899.16
2023-02-21T19:34:05.006Z,99889.44
2023-02-21T19:36:07.997Z,99893.88
2023-02-21T19:38:09.445Z,99896.31
2023-02-21T19:40:11.094Z,99886.00
2023-02-21T19:42:12.521Z,99888.44
2023-02-21T19:44:14.473Z,99891.44
2023-02-21T19:46:24.464Z,99886.16
2023-02-21T19:48:26.014Z,99883.13
2023-02-21T19:50:27.478Z,99883.34
2023-02-21T19:52:29.210Z,99886.78
2023-02-21T19:54:31.492Z,99890.00
2023-02-21T19:56:32.906Z,99884.94
2023-02-21T19:58:34.391Z,99885.97
2023-02-21T20:00:38.512Z,99885.56
2023-02-21T20:02:39.960Z,99878.66
2023-02-21T20:04:43.346Z,99885.94
2023-02-21T20:06:44.752Z,99883.91
2023-02-21T20:08:48.143Z,99886.31
2023-02-21T20:10:49.654Z,99885.31
2023-02-21T20:12:55.493Z,99888.94
2023-02-21T20:14:56.926Z,99887.53
2023-02-21T20:16:58.423Z,99885.72
2023-02-21T20:18:59.806Z,99882.88
2023-02-21T20:21:01.184Z,99889.16
2023-02-21T20:23:03.540Z,99887.13
2023-02-21T20:25:05.879Z,99891.16
2023-02-21T20:27:07.274Z,99889.34
2023-02-21T20:29:08.696Z,99879.66
2023-02-21T20:31:13.424Z,99885.91
2023-02-21T20:33:15.147Z,99885.91
2023-02-21T20:35:16.537Z,99885.50
2023-02-21T20:37:19.137Z,99879.41
2023-02-21T20:39:28.272Z,99873.94
2023-02-21T20:41:35.418Z,99880.63
2023-02-21T20:43:37.410Z,99872.13
2023-02-21T20:45:39.206Z,99874.75
2023-02-21T20:47:40.709Z,99871.31
2023-02-21T20:49:46.448Z,99871.09
2023-02-21T20:51:48.497Z,99870.91
2023-02-21T20:53:49.888Z,99869.28
2023-02-21T20:55:51.307Z,99867.47
2023-02-21T20:57:52.763Z,99865.66
2023-02-21T20:59:54.157Z,99870.91
2023-02-21T21:01:56.222Z,99868.06
2023-02-21T21:03:57.799Z,99859.00
2023-02-21T21:05:59.225Z,99869.28
2023-02-21T21:08:01.540Z,99857.97
2023-02-21T21:10:03.150Z,99861.00
2023-02-21T21:12:09.058Z,99861.81
2023-02-21T21:14:10.661Z,99863.03
2023-02-21T21:16:12.602Z,99857.78
2023-02-21T21:18:13.980Z,99861.22
2023-02-21T21:20:18.927Z,99858.59
2023-02-21T21:22:24.225Z,99853.50
2023-02-21T21:24:25.615Z,99854.31
2023-02-21T21:26:27.025Z,99858.78
2023-02-21T21:28:31.775Z,99845.63
2023-02-21T21:30:33.347Z,99850.88
2023-02-21T21:32:35.002Z,99851.50
2023-02-21T21:34:38.855Z,99839.34
2023-02-21T21:36:45.125Z,99847.25
2023-02-21T21:38:47.037Z,99841.81
2023-02-21T21:40:48.523Z,99845.84
2023-02-21T21:42:54.961Z,99841.41
2023-02-21T21:44:56.881Z,99843.41
2023-02-21T21:47:02.186Z,99836.31
2023-02-21T21:49:06.185Z,99836.13
2023-02-21T21:51:09.364Z,99833.50
2023-02-21T21:53:11.102Z,99830.66
2023-02-21T21:55:18.655Z,99827.22
2023-02-21T21:57:22.711Z,99821.16
2023-02-21T21:59:26.733Z,99816.28
2023-02-21T22:01:29.918Z,99807.97
2023-02-21T22:03:32.013Z,99815.88
2023-02-21T22:05:35.319Z,99811.44
2023-02-21T22:07:36.710Z,99803.75
2023-02-21T22:09:38.948Z,99799.91
2023-02-21T22:11:43.075Z,99799.09
2023-02-21T22:13:44.455Z,99801.72
2023-02-21T22:15:46.701Z,99801.94
2023-02-21T22:17:49.004Z,99799.09
2023-02-21T22:19:50.509Z,99797.28
2023-02-21T22:21:56.776Z,99799.09
2023-02-21T22:23:58.765Z,99794.81
2023-02-21T22:26:00.934Z,99799.91
2023-02-21T22:28:05.401Z,99798.09
2023-02-21T22:30:09.067Z,99793.22
2023-02-21T22:32:10.720Z,99787.16
2023-02-21T22:34:22.990Z,99783.31
2023-02-21T22:36:25.510Z,99784.94
2023-02-21T22:38:26.887Z,99785.13
2023-02-21T22:40:29.943Z,99776.81
2023-02-21T22:42:31.817Z,99790.78
2023-02-21T22:44:33.208Z,99784.53
2023-02-21T22:46:41.508Z,99785.13
2023-02-21T22:48:44.713Z,99785.94
2023-02-21T22:50:47.601Z,99785.34
2023-02-21T22:52:50.943Z,99784.31
2023-02-21T22:54:52.908Z,99782.31
2023-02-21T22:57:03.425Z,99783.72
2023-02-21T22:59:08.803Z,99779.28
2023-02-21T23:01:10.183Z,99779.28
2023-02-21T23:03:14.409Z,99778.69
2023-02-21T23:05:19.560Z,99771.56
2023-02-21T23:07:24.520Z,99773.19
2023-02-21T23:09:29.001Z,99769.16
2023-02-21T23:11:31.272Z,99769.97
2023-02-21T23:13:32.947Z,99759.44
2023-02-21T23:15:35.355Z,99762.25
2023-02-21T23:17:38.044Z,99762.25
2023-02-21T23:19:39.811Z,99752.16
2023-02-21T23:21:46.331Z,99746.28
2023-02-21T23:23:47.699Z,99749.13
2023-02-21T23:25:49.131Z,99751.16
2023-02-21T23:27:56.019Z,99749.94
2023-02-21T23:29:58.794Z,99747.28
2023-02-21T23:32:09.397Z,99745.47
2023-02-21T23:34:12.042Z,99746.28
2023-02-21T23:36:13.521Z,99743.03
2023-02-21T23:38:15.747Z,99739.00
2023-02-21T23:40:20.382Z,99738.00
2023-02-21T23:42:23.664Z,99743.25
2023-02-21T23:44:25.049Z,99740.00
2023-02-21T23:46:29.148Z,99736.56
2023-02-21T23:48:32.548Z,99733.94
2023-02-21T23:50:35.084Z,99731.91
2023-02-21T23:52:37.252Z,99733.94
2023-02-21T23:54:40.271Z,99724.44
2023-02-21T23:56:41.765Z,99719.38
2023-02-21T23:58:46.423Z,99720.38
